Accueil
METAR-TAF:

METAR-TAF

Aéroports :

Aéroport du Havre-Octeville

Le Havre, France

latitude: 49-31N, longitude: 000-04E, altitude: 100 m

Observation

Le bulletin a été fait il y a 27 minutes, à 01:00 UTC
Vent 10 kt de ouest/sud-ouest
Température 17°C
Humidité 88%
Pression 1016 hPa
Visibilité 10 km ou plus
Nuages fragmentés à une hauteur de 1300 ft
Ciel couvert à une hauteur de 4200 ft

METAR: LFOH 170100Z AUTO 25010KT 9999 BKN013 OVC042 17/15 Q1016

Heure: 03:27 (01:27 UTC)

Prévision

Le bulletin a été fait il y a 14 heures et 27 minutes, à 11:00 UTC
Prévision valable du 16 à 12 UTC au 17 à 12 UTC
Vent 10 kt de nord-ouest
Visibilité 10 km ou plus
pas de nuages en-dessous de 1500 mètres et pas de cumulonimbus.
Temporairement
du 16 à 19 UTC au 16 à 24 UTC
Nuages fragmentés à une hauteur de 500 ft

TAF: LFOH 161100Z 1612/1712 31010KT CAVOK TEMPO 1619/1624 BKN005

Observations et prévisions météorologiques de plus de 4000 aéroports (messages METAR et TAF).

Les stations disponibles sont représentées par des disques jaunes et rouges sur la carte.

Passer la souris dessus pour voir le nom de la station.

Cliquer dessus pour voir les observations et prévisions météorologiques.

Pour changer de carte: cliquez sur les boutons verts avec une croix noire pour zoomer, sur le bouton vert avec un tiret pour effectuer un zoom arrière, ou sur les flèches vertes pour les cartes adjacentes.


METAR-TAF: